NCAR-RAP Real-Time Weather Data

Output produced by METARs form (06 May 2021  16:49 UTC)
found at http://weather.rap.ucar.edu/surface/
 
KAST 061555Z AUTO 20011G21KT 10SM OVC020 12/07 A2992 RMK AO2 SLP132 T01220072
KAST 061537Z AUTO 18015G20KT 10SM BKN021 12/07 A2992 RMK AO2 T01170067
KAST 061455Z AUTO 21011G19KT 10SM CLR 11/07 A2991 RMK AO2 SLP129 T01110067 53014
KAST 061418Z AUTO 21015G20KT 10SM FEW014 11/07 A2990 RMK AO2 T01060072
KAST 061355Z AUTO 19009KT 10SM OVC013 11/08 A2990 RMK AO2 SLP124 T01060083
KAST 061333Z AUTO 10SM BKN013 11/08 A2990 RMK AO2 T01060083
KAST 061255Z AUTO 19006KT 10SM CLR 09/07 A2988 RMK AO2 SLP118 T00890067
KAST 061155Z AUTO 10003KT 10SM CLR 09/07 A2987 RMK AO2 SLP115 T00890072 10117 20089 56001
KAST 061055Z AUTO 00000KT 10SM CLR 09/07 A2988 RMK AO2 SLP116 T00890072
KAST 060955Z AUTO 00000KT 10SM CLR 10/08 A2987 RMK AO2 SLP114 T01000078
KAST 060855Z AUTO 00000KT 10SM CLR 09/08 A2988 RMK AO2 VIS 1 3/4 RWY 08 SLP116 T00940078 58003
KAST 060755Z AUTO 00000KT 10SM CLR 11/10 A2988 RMK AO2 SLP118 T01110100 402330044
KAST 060655Z AUTO 23005KT 10SM CLR 12/10 A2989 RMK AO2 SLP120 T01170100
KAST 060555Z AUTO 23005KT 10SM CLR 12/11 A2988 RMK AO2 SLP119 T01170106 10178 20111 53014
KAST 060455Z AUTO 24005KT 10SM CLR 12/09 A2987 RMK AO2 SLP114 T01170089
KAST 060355Z AUTO 00000KT 10SM CLR 13/08 A2985 RMK AO2 SLP106 T01330078